createdAt,value
2018-11-03T00:00:16.837Z,6.90
2018-11-03T00:02:47.237Z,7.27
2018-11-03T00:05:17.009Z,7.27
2018-11-03T00:07:46.668Z,7.10
2018-11-03T00:10:16.009Z,6.47
2018-11-03T00:12:45.193Z,7.40
2018-11-03T00:15:14.849Z,6.30
2018-11-03T00:17:44.011Z,7.10
2018-11-03T00:20:13.145Z,6.00
2018-11-03T00:22:42.329Z,6.33
2018-11-03T00:25:11.874Z,7.90
2018-11-03T00:27:41.021Z,6.67
2018-11-03T00:30:12.208Z,6.33
2018-11-03T00:32:41.771Z,6.17
2018-11-03T00:35:12.037Z,6.60
2018-11-03T00:37:41.189Z,7.53
2018-11-03T00:40:13.628Z,8.47
2018-11-03T00:42:43.597Z,8.20
2018-11-03T00:45:14.357Z,9.23
2018-11-03T00:47:44.488Z,8.00
2018-11-03T00:50:14.830Z,8.43
2018-11-03T00:52:44.801Z,7.90
2018-11-03T00:55:14.353Z,8.37
2018-11-03T00:57:43.822Z,9.50
2018-11-03T01:00:15.835Z,9.40
2018-11-03T01:02:47.776Z,8.73
2018-11-03T01:05:16.935Z,7.43
2018-11-03T01:07:46.856Z,10.20
2018-11-03T01:10:17.086Z,6.23
2018-11-03T01:12:46.176Z,8.13
2018-11-03T01:15:16.641Z,20.87
2018-11-03T01:17:45.981Z,8.77
2018-11-03T01:20:18.180Z,10.63
2018-11-03T01:22:47.300Z,9.30
2018-11-03T01:25:16.492Z,9.17
2018-11-03T01:27:45.706Z,6.50
2018-11-03T01:30:16.129Z,6.63
2018-11-03T01:32:45.285Z,10.63
2018-11-03T01:35:14.851Z,9.17
2018-11-03T01:37:43.996Z,12.73
2018-11-03T01:40:14.061Z,5.57
2018-11-03T01:42:43.825Z,7.17
2018-11-03T01:45:12.993Z,7.83
2018-11-03T01:47:42.112Z,8.10
2018-11-03T01:50:13.133Z,9.30
2018-11-03T01:52:42.724Z,7.67
2018-11-03T01:55:11.937Z,7.50
2018-11-03T01:57:41.985Z,7.23
2018-11-03T02:00:11.900Z,15.00
2018-11-03T02:02:42.043Z,7.03
2018-11-03T02:05:11.521Z,8.40
2018-11-03T02:07:41.288Z,6.67
2018-11-03T02:10:11.833Z,7.83
2018-11-03T02:12:41.644Z,11.63
2018-11-03T02:15:11.156Z,9.53
2018-11-03T02:17:40.993Z,11.77
2018-11-03T02:20:11.380Z,8.07
2018-11-03T02:22:40.888Z,8.50
2018-11-03T02:25:10.793Z,8.50
2018-11-03T02:27:41.810Z,22.90
2018-11-03T02:30:11.939Z,11.67
2018-11-03T02:32:41.675Z,9.77
2018-11-03T02:35:11.725Z,10.40
2018-11-03T02:37:41.521Z,11.13
2018-11-03T02:40:12.273Z,13.90
2018-11-03T02:42:42.576Z,19.87
2018-11-03T02:45:12.035Z,10.63
2018-11-03T02:47:41.725Z,11.00
2018-11-03T02:50:13.325Z,9.50
2018-11-03T02:52:42.820Z,9.03
2018-11-03T02:55:11.925Z,9.97
2018-11-03T02:57:41.141Z,9.30
2018-11-03T03:00:11.277Z,9.17
2018-11-03T03:02:40.508Z,10.07
2018-11-03T03:05:10.881Z,7.57
2018-11-03T03:07:40.292Z,11.33
2018-11-03T03:10:11.774Z,8.03
2018-11-03T03:12:41.236Z,9.30
2018-11-03T03:15:12.581Z,9.13
2018-11-03T03:17:42.284Z,10.07
2018-11-03T03:20:13.385Z,9.50
2018-11-03T03:22:42.937Z,9.50
2018-11-03T03:25:12.668Z,9.07
2018-11-03T03:27:41.785Z,12.87
2018-11-03T03:30:11.579Z,10.30
2018-11-03T03:32:41.051Z,11.60
2018-11-03T03:35:10.209Z,10.27
2018-11-03T03:37:39.344Z,8.53
2018-11-03T03:40:09.659Z,8.80
2018-11-03T03:42:38.890Z,10.57
2018-11-03T03:45:09.069Z,15.30
2018-11-03T03:47:38.224Z,9.20
2018-11-03T03:50:09.040Z,11.17
2018-11-03T03:52:38.876Z,9.50
2018-11-03T03:55:08.426Z,9.00
2018-11-03T03:57:37.966Z,10.37
2018-11-03T04:00:09.806Z,9.17
2018-11-03T04:02:39.147Z,11.40
2018-11-03T04:05:08.441Z,8.73
2018-11-03T04:07:37.940Z,12.97
2018-11-03T04:10:08.757Z,11.37
2018-11-03T04:12:37.876Z,11.87
2018-11-03T04:15:07.210Z,8.67
2018-11-03T04:17:36.385Z,9.33
2018-11-03T04:20:06.823Z,11.00
2018-11-03T04:22:35.950Z,10.47
2018-11-03T04:25:05.380Z,10.73
2018-11-03T04:27:34.972Z,8.60
2018-11-03T04:30:06.333Z,10.23
2018-11-03T04:32:35.460Z,8.77
2018-11-03T04:35:04.718Z,14.13
2018-11-03T04:37:34.016Z,9.60
2018-11-03T04:40:03.169Z,9.63
2018-11-03T04:42:32.285Z,10.60
2018-11-03T04:45:01.450Z,16.43
2018-11-03T04:47:30.601Z,10.10
2018-11-03T04:49:59.742Z,8.33
2018-11-03T04:52:28.844Z,7.97
2018-11-03T04:54:58.702Z,10.43
2018-11-03T04:57:28.465Z,11.37
2018-11-03T04:59:57.828Z,8.57
2018-11-03T05:02:27.018Z,10.27
2018-11-03T05:04:56.217Z,10.37
2018-11-03T05:07:26.412Z,11.37
2018-11-03T05:09:55.627Z,9.03
2018-11-03T05:12:24.696Z,9.47
2018-11-03T05:14:54.083Z,10.33
2018-11-03T05:17:23.345Z,10.10
2018-11-03T05:19:52.574Z,9.80
2018-11-03T05:22:22.149Z,10.83
2018-11-03T05:24:51.701Z,10.60
2018-11-03T05:27:20.889Z,10.50
2018-11-03T05:29:50.081Z,9.17
2018-11-03T05:32:19.176Z,9.17
2018-11-03T05:34:48.321Z,12.00
2018-11-03T05:37:18.448Z,10.40
2018-11-03T05:39:47.569Z,10.90
2018-11-03T05:42:16.741Z,9.47
2018-11-03T05:44:46.396Z,10.97
2018-11-03T05:47:15.554Z,10.27
2018-11-03T05:49:45.629Z,12.10
2018-11-03T05:52:15.132Z,9.87
2018-11-03T05:54:44.218Z,10.93
2018-11-03T05:57:13.328Z,12.80
2018-11-03T05:59:42.734Z,8.80
2018-11-03T06:02:11.897Z,9.87
2018-11-03T06:04:41.080Z,10.53
2018-11-03T06:07:10.257Z,11.60
2018-11-03T06:09:40.485Z,10.37
2018-11-03T06:12:09.632Z,11.87
2018-11-03T06:14:38.820Z,12.27
2018-11-03T06:17:07.969Z,12.63
2018-11-03T06:19:37.637Z,9.47
2018-11-03T06:22:07.541Z,10.53
2018-11-03T06:24:36.961Z,13.30
2018-11-03T06:27:06.620Z,12.97
2018-11-03T06:29:35.773Z,11.53
2018-11-03T06:32:05.412Z,9.73
2018-11-03T06:34:34.553Z,25.47
2018-11-03T06:37:04.264Z,12.30
2018-11-03T06:39:33.416Z,9.87
2018-11-03T06:42:02.837Z,11.30
2018-11-03T06:44:32.001Z,10.63
2018-11-03T06:47:01.261Z,13.53
2018-11-03T06:49:30.417Z,10.77
2018-11-03T06:51:59.960Z,11.03
2018-11-03T06:54:29.060Z,11.87
2018-11-03T06:56:58.124Z,9.33
2018-11-03T06:59:27.657Z,10.10
2018-11-03T07:01:56.805Z,11.60
2018-11-03T07:04:26.162Z,10.03
2018-11-03T07:06:55.349Z,12.17
2018-11-03T07:09:24.505Z,7.70
2018-11-03T07:11:54.298Z,8.77
2018-11-03T07:14:23.421Z,6.87
2018-11-03T07:16:52.765Z,7.93
2018-11-03T07:19:21.875Z,9.00
2018-11-03T07:21:51.712Z,7.77
2018-11-03T07:24:20.817Z,6.53
2018-11-03T07:26:49.956Z,7.20
2018-11-03T07:29:19.632Z,6.37
2018-11-03T07:31:48.913Z,5.57
2018-11-03T07:34:18.619Z,5.57
2018-11-03T07:36:47.784Z,6.07
2018-11-03T07:39:16.961Z,5.27
2018-11-03T07:41:46.092Z,6.35
2018-11-03T07:44:15.322Z,5.00
2018-11-03T07:46:45.557Z,5.08
2018-11-03T07:49:17.547Z,4.92
2018-11-03T07:51:47.901Z,4.83
2018-11-03T07:54:17.429Z,4.70
2018-11-03T07:56:46.589Z,4.92
2018-11-03T07:59:15.793Z,4.35
2018-11-03T08:01:44.974Z,5.40
2018-11-03T08:04:14.132Z,5.10
2018-11-03T08:06:43.265Z,5.37
2018-11-03T08:09:12.449Z,5.15
2018-11-03T08:11:41.504Z,5.08
2018-11-03T08:14:10.698Z,5.33
2018-11-03T08:16:39.909Z,5.25
2018-11-03T08:19:09.200Z,4.87
2018-11-03T08:21:38.365Z,4.40
2018-11-03T08:24:07.537Z,5.00
2018-11-03T08:26:36.625Z,5.87
2018-11-03T08:29:06.052Z,5.45
2018-11-03T08:31:35.327Z,6.97
2018-11-03T08:34:05.168Z,6.65
2018-11-03T08:36:34.281Z,5.25
2018-11-03T08:39:03.497Z,6.53
2018-11-03T08:41:33.248Z,7.60
2018-11-03T08:44:02.337Z,7.90
2018-11-03T08:46:31.523Z,8.90
2018-11-03T08:49:01.464Z,7.75
2018-11-03T08:51:30.672Z,7.78
2018-11-03T08:53:59.757Z,8.18
2018-11-03T08:56:29.354Z,7.67
2018-11-03T08:58:58.538Z,7.50
2018-11-03T09:01:27.710Z,7.55
2018-11-03T09:03:57.021Z,7.37
2018-11-03T09:06:26.707Z,7.90
2018-11-03T09:08:55.868Z,7.15
2018-11-03T09:11:25.123Z,7.87
2018-11-03T09:13:54.273Z,7.67
2018-11-03T09:16:23.481Z,7.55
2018-11-03T09:18:52.621Z,8.45
2018-11-03T09:21:21.728Z,8.38
2018-11-03T09:23:50.913Z,7.62
2018-11-03T09:26:20.636Z,7.47
2018-11-03T09:28:49.793Z,8.10
2018-11-03T09:31:18.924Z,9.15
2018-11-03T09:33:48.079Z,8.30
2018-11-03T09:36:17.253Z,8.30
2018-11-03T09:38:46.467Z,9.30
2018-11-03T09:41:15.644Z,7.87
2018-11-03T09:43:44.761Z,7.65
2018-11-03T09:46:13.982Z,9.85
2018-11-03T09:48:43.353Z,10.03
2018-11-03T09:51:12.658Z,8.90
2018-11-03T09:53:41.697Z,8.15
2018-11-03T09:56:11.213Z,8.80
2018-11-03T09:58:40.341Z,8.73
2018-11-03T10:01:09.465Z,7.60
2018-11-03T10:03:38.649Z,9.83
2018-11-03T10:06:07.880Z,10.03
2018-11-03T10:08:37.057Z,9.85
2018-11-03T10:11:06.449Z,10.25
2018-11-03T10:13:35.707Z,10.08
2018-11-03T10:16:05.262Z,8.85
2018-11-03T10:18:34.361Z,8.83
2018-11-03T10:21:03.488Z,8.45
2018-11-03T10:23:32.619Z,8.90
2018-11-03T10:26:01.929Z,9.05
2018-11-03T10:28:31.271Z,8.23
2018-11-03T10:31:00.741Z,8.85
2018-11-03T10:33:29.988Z,9.98
2018-11-03T10:35:59.129Z,9.63
2018-11-03T10:38:28.241Z,8.08
2018-11-03T10:40:57.322Z,12.37
2018-11-03T10:43:26.429Z,8.88
2018-11-03T10:45:55.564Z,9.10
2018-11-03T10:48:24.732Z,9.63
2018-11-03T10:50:53.907Z,9.70
2018-11-03T10:53:23.012Z,9.48
2018-11-03T10:55:52.177Z,8.15
2018-11-03T10:58:21.385Z,8.75
2018-11-03T11:00:56.026Z,12.65
2018-11-03T11:03:30.688Z,10.25
2018-11-03T11:06:04.973Z,10.38
2018-11-03T11:08:39.349Z,10.43
2018-11-03T11:11:13.805Z,9.35
2018-11-03T11:13:43.309Z,8.90
2018-11-03T11:16:12.456Z,8.08
2018-11-03T11:18:41.796Z,9.15
2018-11-03T11:21:10.949Z,9.88
2018-11-03T11:23:40.463Z,9.93
2018-11-03T11:26:09.501Z,9.25
2018-11-03T11:28:38.628Z,8.28
2018-11-03T11:31:07.777Z,10.98
2018-11-03T11:33:36.893Z,9.20
2018-11-03T11:36:06.340Z,10.15
2018-11-03T11:38:35.534Z,9.30
2018-11-03T11:41:04.989Z,8.90
2018-11-03T11:43:34.137Z,7.75
2018-11-03T11:46:03.256Z,8.98
2018-11-03T11:48:32.376Z,8.50
2018-11-03T11:51:01.537Z,10.35
2018-11-03T11:53:30.692Z,9.35
2018-11-03T11:55:59.753Z,7.95
2018-11-03T11:58:28.885Z,7.42
2018-11-03T12:00:58.257Z,8.23
2018-11-03T12:03:27.425Z,8.10
2018-11-03T12:05:57.556Z,6.70
2018-11-03T12:08:26.775Z,8.80
2018-11-03T12:10:55.885Z,6.55
2018-11-03T12:13:25.904Z,8.15
2018-11-03T12:15:55.076Z,10.75
2018-11-03T12:18:24.253Z,9.25
2018-11-03T12:20:53.957Z,7.40
2018-11-03T12:23:23.121Z,7.47
2018-11-03T12:25:53.352Z,7.92
2018-11-03T12:28:22.485Z,7.03
2018-11-03T12:30:51.891Z,9.35
2018-11-03T12:33:20.984Z,8.03
2018-11-03T12:35:50.221Z,5.92
2018-11-03T12:38:19.420Z,9.08
2018-11-03T12:40:48.736Z,7.37
2018-11-03T12:43:17.811Z,7.80
2018-11-03T12:45:46.952Z,8.28
2018-11-03T12:48:16.102Z,8.85
2018-11-03T12:50:45.265Z,8.95
2018-11-03T12:53:14.401Z,9.93
2018-11-03T12:55:43.608Z,7.62
2018-11-03T12:58:12.793Z,9.58
2018-11-03T13:00:41.944Z,7.70
2018-11-03T13:03:11.101Z,10.08
2018-11-03T13:05:40.797Z,7.67
2018-11-03T13:08:09.973Z,8.10
2018-11-03T13:10:39.069Z,6.83
2018-11-03T13:13:08.285Z,8.15
2018-11-03T13:15:37.464Z,11.28
2018-11-03T13:18:06.556Z,6.53
2018-11-03T13:20:35.665Z,7.37
2018-11-03T13:23:05.165Z,8.43
2018-11-03T13:25:34.269Z,9.55
2018-11-03T13:28:03.438Z,9.65
2018-11-03T13:30:32.533Z,9.80
2018-11-03T13:33:01.657Z,12.40
2018-11-03T13:35:30.737Z,9.43
2018-11-03T13:38:00.028Z,7.12
2018-11-03T13:40:29.612Z,10.28
2018-11-03T13:42:58.761Z,8.90
2018-11-03T13:45:27.904Z,9.20
2018-11-03T13:47:57.101Z,9.07
2018-11-03T13:50:26.646Z,9.70
2018-11-03T13:52:56.169Z,8.80
2018-11-03T13:55:25.332Z,10.37
2018-11-03T13:57:54.489Z,8.23
2018-11-03T14:00:23.685Z,9.17
2018-11-03T14:02:52.885Z,7.43
2018-11-03T14:05:22.033Z,7.80
2018-11-03T14:07:51.260Z,8.33
2018-11-03T14:10:20.348Z,9.13
2018-11-03T14:12:49.421Z,7.53
2018-11-03T14:15:18.931Z,8.17
2018-11-03T14:17:48.044Z,7.73
2018-11-03T14:20:18.016Z,7.13
2018-11-03T14:22:47.137Z,10.93
2018-11-03T14:25:17.631Z,7.00
2018-11-03T14:27:47.910Z,9.27
2018-11-03T14:30:17.310Z,7.93
2018-11-03T14:32:46.529Z,9.57
2018-11-03T14:35:16.244Z,6.90
2018-11-03T14:37:45.417Z,6.60
2018-11-03T14:40:15.944Z,7.27
2018-11-03T14:42:45.852Z,8.93
2018-11-03T14:45:16.116Z,7.13
2018-11-03T14:47:45.237Z,7.60
2018-11-03T14:50:14.353Z,9.47
2018-11-03T14:52:44.187Z,11.63
2018-11-03T14:55:13.801Z,8.83
2018-11-03T14:57:42.921Z,8.60
2018-11-03T15:00:15.534Z,10.30
2018-11-03T15:02:44.777Z,10.50
2018-11-03T15:05:14.208Z,6.87
2018-11-03T15:07:43.377Z,8.30
2018-11-03T15:10:13.497Z,7.87
2018-11-03T15:12:44.116Z,6.40
2018-11-03T15:15:15.189Z,6.30
2018-11-03T15:17:45.073Z,8.60
2018-11-03T15:20:14.174Z,5.93
2018-11-03T15:22:44.141Z,6.50
2018-11-03T15:25:13.446Z,6.27
2018-11-03T15:27:43.092Z,7.37
2018-11-03T15:30:13.520Z,7.33
2018-11-03T15:32:42.921Z,5.30
2018-11-03T15:35:12.888Z,6.50
2018-11-03T15:37:42.080Z,6.10
2018-11-03T15:40:13.853Z,5.57
2018-11-03T15:42:43.445Z,4.00
2018-11-03T15:45:15.008Z,7.30
2018-11-03T15:47:45.332Z,5.87
2018-11-03T15:50:15.196Z,3.90
2018-11-03T15:52:44.993Z,3.17
2018-11-03T15:55:15.025Z,7.20
2018-11-03T15:57:44.144Z,4.60
2018-11-03T16:00:16.229Z,7.30
2018-11-03T16:02:45.816Z,4.53
2018-11-03T16:05:15.249Z,3.93
2018-11-03T16:07:45.133Z,6.37
2018-11-03T16:10:14.296Z,5.47
2018-11-03T16:12:43.606Z,4.00
2018-11-03T16:15:13.704Z,3.70
2018-11-03T16:17:43.376Z,4.17
2018-11-03T16:20:13.577Z,4.10
2018-11-03T16:22:43.533Z,6.70
2018-11-03T16:25:13.093Z,4.60
2018-11-03T16:27:42.224Z,3.60
2018-11-03T16:30:15.830Z,3.80
2018-11-03T16:32:45.726Z,2.30
2018-11-03T16:35:14.886Z,4.37
2018-11-03T16:37:44.681Z,3.67
2018-11-03T16:40:15.281Z,2.67
2018-11-03T16:42:45.300Z,4.47
2018-11-03T16:45:16.517Z,2.77
2018-11-03T16:47:46.248Z,3.80
2018-11-03T16:50:16.416Z,6.63
2018-11-03T16:52:45.835Z,5.00
2018-11-03T16:55:15.844Z,5.10
2018-11-03T16:57:44.933Z,3.17
2018-11-03T17:00:15.385Z,4.93
2018-11-03T17:02:44.553Z,2.67
2018-11-03T17:05:14.988Z,3.10
2018-11-03T17:07:44.136Z,2.93
2018-11-03T17:10:15.032Z,4.30
2018-11-03T17:12:45.485Z,3.63
2018-11-03T17:15:14.953Z,4.47
2018-11-03T17:17:44.073Z,3.17
2018-11-03T17:20:13.236Z,3.80
2018-11-03T17:22:42.360Z,5.17
2018-11-03T17:25:12.677Z,4.17
2018-11-03T17:27:42.329Z,4.10
2018-11-03T17:30:13.968Z,5.27
2018-11-03T17:32:43.592Z,5.23
2018-11-03T17:35:13.609Z,3.70
2018-11-03T17:37:43.920Z,4.80
2018-11-03T17:40:13.305Z,3.00
2018-11-03T17:42:42.893Z,3.83
2018-11-03T17:45:12.649Z,5.60
2018-11-03T17:47:41.935Z,5.83
2018-11-03T17:50:13.041Z,3.43
2018-11-03T17:52:42.255Z,5.37
2018-11-03T17:55:11.529Z,3.73
2018-11-03T17:57:40.801Z,4.17
2018-11-03T18:00:13.224Z,4.77
2018-11-03T18:02:43.372Z,4.00
2018-11-03T18:05:12.895Z,5.00
2018-11-03T18:07:42.482Z,3.30
2018-11-03T18:10:12.744Z,3.73
2018-11-03T18:12:42.533Z,5.17
2018-11-03T18:15:12.009Z,4.00
2018-11-03T18:17:41.657Z,5.00
2018-11-03T18:20:11.184Z,3.97
2018-11-03T18:22:40.556Z,5.40
2018-11-03T18:25:10.316Z,6.27
2018-11-03T18:27:39.507Z,4.30
2018-11-03T18:30:11.095Z,5.00
2018-11-03T18:32:40.661Z,5.87
2018-11-03T18:35:09.989Z,5.83
2018-11-03T18:37:39.248Z,6.83
2018-11-03T18:40:09.188Z,7.03
2018-11-03T18:42:38.508Z,5.63
2018-11-03T18:45:08.388Z,6.10
2018-11-03T18:47:37.655Z,5.93
2018-11-03T18:50:12.597Z,4.63
2018-11-03T18:52:41.928Z,6.63
2018-11-03T18:55:11.905Z,5.20
2018-11-03T18:57:41.930Z,4.77
2018-11-03T19:00:11.933Z,4.17
2018-11-03T19:02:42.102Z,4.93
2018-11-03T19:05:11.156Z,6.00
2018-11-03T19:07:40.253Z,6.17
2018-11-03T19:10:10.045Z,7.23
2018-11-03T19:12:39.809Z,6.93
2018-11-03T19:15:10.756Z,5.03
2018-11-03T19:17:40.668Z,4.07
2018-11-03T19:20:13.412Z,4.30
2018-11-03T19:22:42.836Z,3.63
2018-11-03T19:25:13.205Z,4.90
2018-11-03T19:27:42.496Z,4.10
2018-11-03T19:30:12.760Z,4.73
2018-11-03T19:32:43.636Z,7.30
2018-11-03T19:35:12.754Z,4.83
2018-11-03T19:37:42.418Z,7.43
2018-11-03T19:40:12.883Z,5.13
2018-11-03T19:42:42.431Z,3.60
2018-11-03T19:45:12.433Z,5.23
2018-11-03T19:47:41.561Z,3.83
2018-11-03T19:50:11.064Z,3.90
2018-11-03T19:52:40.241Z,4.43
2018-11-03T19:55:09.365Z,5.07
2018-11-03T19:57:38.456Z,3.90
2018-11-03T20:00:12.669Z,3.57
2018-11-03T20:02:41.850Z,5.40
2018-11-03T20:05:11.749Z,4.10
2018-11-03T20:07:42.235Z,4.83
2018-11-03T20:10:11.554Z,6.37
2018-11-03T20:12:40.738Z,5.67
2018-11-03T20:15:11.217Z,5.00
2018-11-03T20:17:40.535Z,4.53
2018-11-03T20:20:11.288Z,4.57
2018-11-03T20:22:40.660Z,5.07
2018-11-03T20:25:11.046Z,5.40
2018-11-03T20:27:40.181Z,3.90
2018-11-03T20:30:13.617Z,4.00
2018-11-03T20:32:43.317Z,4.83
2018-11-03T20:35:12.479Z,3.40
2018-11-03T20:37:41.825Z,6.57
2018-11-03T20:40:12.397Z,4.17
2018-11-03T20:42:41.512Z,3.47
2018-11-03T20:45:11.157Z,4.10
2018-11-03T20:47:40.301Z,5.33
2018-11-03T20:50:12.689Z,4.47
2018-11-03T20:52:41.868Z,4.07
2018-11-03T20:55:11.923Z,4.90
2018-11-03T20:57:41.449Z,5.57
2018-11-03T21:00:17.273Z,6.10
2018-11-03T21:02:47.257Z,4.73
2018-11-03T21:05:16.389Z,5.53
2018-11-03T21:07:45.585Z,5.37
2018-11-03T21:10:14.733Z,9.73
2018-11-03T21:12:43.868Z,4.83
2018-11-03T21:15:13.001Z,5.57
2018-11-03T21:17:42.105Z,6.33
2018-11-03T21:20:11.290Z,4.50
2018-11-03T21:22:40.402Z,4.03
2018-11-03T21:25:09.608Z,4.60
2018-11-03T21:27:38.785Z,6.30
2018-11-03T21:30:10.015Z,4.37
2018-11-03T21:32:39.234Z,5.30
2018-11-03T21:35:08.405Z,5.47
2018-11-03T21:37:38.281Z,5.23
2018-11-03T21:40:08.361Z,4.87
2018-11-03T21:42:37.536Z,4.30
2018-11-03T21:45:07.933Z,3.93
2018-11-03T21:47:39.081Z,4.63
2018-11-03T21:50:08.658Z,6.60
2018-11-03T21:52:37.924Z,4.60
2018-11-03T21:55:07.740Z,4.90
2018-11-03T21:57:37.087Z,5.13
2018-11-03T22:00:08.817Z,5.90
2018-11-03T22:02:37.972Z,7.23
2018-11-03T22:05:09.268Z,6.43
2018-11-03T22:07:39.081Z,7.30
2018-11-03T22:10:08.621Z,7.10
2018-11-03T22:12:37.737Z,7.77
2018-11-03T22:15:07.593Z,6.20
2018-11-03T22:17:36.825Z,6.30
2018-11-03T22:20:06.832Z,7.67
2018-11-03T22:22:36.113Z,5.37
2018-11-03T22:25:06.201Z,7.10
2018-11-03T22:27:36.021Z,5.93
2018-11-03T22:30:05.549Z,4.77
2018-11-03T22:32:34.721Z,6.57
2018-11-03T22:35:03.964Z,5.73
2018-11-03T22:37:33.117Z,7.40
2018-11-03T22:40:02.403Z,9.77
2018-11-03T22:42:31.609Z,6.40
2018-11-03T22:45:00.735Z,6.87
2018-11-03T22:47:29.953Z,8.50
2018-11-03T22:49:59.097Z,7.53
2018-11-03T22:52:28.329Z,7.57
2018-11-03T22:54:58.228Z,9.63
2018-11-03T22:57:27.393Z,9.60
2018-11-03T22:59:56.475Z,8.00
2018-11-03T23:02:25.661Z,8.00
2018-11-03T23:04:55.001Z,8.30
2018-11-03T23:07:24.096Z,10.10
2018-11-03T23:09:53.213Z,9.03
2018-11-03T23:12:22.383Z,6.50
2018-11-03T23:14:51.600Z,6.37
2018-11-03T23:17:20.761Z,9.20
2018-11-03T23:19:49.941Z,7.90
2018-11-03T23:22:19.778Z,6.73
2018-11-03T23:24:48.977Z,7.03
2018-11-03T23:27:18.121Z,7.27
2018-11-03T23:29:47.323Z,9.60
2018-11-03T23:32:16.917Z,10.30
2018-11-03T23:34:45.993Z,7.33
2018-11-03T23:37:15.069Z,9.00
2018-11-03T23:39:44.204Z,11.17
2018-11-03T23:42:13.390Z,9.93
2018-11-03T23:44:42.480Z,11.00
2018-11-03T23:47:11.669Z,10.83
2018-11-03T23:49:40.852Z,11.13
2018-11-03T23:52:09.985Z,10.87
2018-11-03T23:54:39.126Z,10.23
2018-11-03T23:57:08.629Z,11.40
2018-11-03T23:59:37.820Z,11.10
